createdAt,value
2017-01-21T00:00:57.950Z,736.37
2017-01-21T00:01:57.929Z,736.37
2017-01-21T00:02:57.909Z,736.38
2017-01-21T00:03:57.895Z,736.41
2017-01-21T00:04:57.868Z,736.37
2017-01-21T00:05:57.847Z,736.38
2017-01-21T00:06:57.829Z,736.34
2017-01-21T00:07:57.806Z,736.32
2017-01-21T00:08:57.784Z,736.29
2017-01-21T00:09:57.765Z,736.39
2017-01-21T00:10:57.749Z,736.36
2017-01-21T00:11:57.728Z,736.37
2017-01-21T00:12:57.703Z,736.39
2017-01-21T00:13:57.686Z,736.36
2017-01-21T00:14:57.665Z,736.33
2017-01-21T00:15:57.646Z,736.29
2017-01-21T00:16:57.621Z,736.34
2017-01-21T00:17:57.600Z,736.3
2017-01-21T00:18:57.580Z,736.33
2017-01-21T00:19:57.562Z,736.3
2017-01-21T00:20:57.542Z,736.33
2017-01-21T00:21:57.518Z,736.23
2017-01-21T00:22:57.498Z,736.27
2017-01-21T00:23:57.479Z,736.3
2017-01-21T00:24:57.459Z,736.27
2017-01-21T00:25:57.438Z,736.4
2017-01-21T00:26:57.415Z,736.3
2017-01-21T00:27:57.397Z,736.32
2017-01-21T00:28:57.376Z,736.27
2017-01-21T00:29:57.353Z,736.31
2017-01-21T00:30:57.331Z,736.28
2017-01-21T00:31:57.311Z,736.21
2017-01-21T00:32:57.294Z,736.28
2017-01-21T00:33:57.270Z,736.32
2017-01-21T00:34:57.251Z,736.21
2017-01-21T00:35:57.231Z,736.25
2017-01-21T00:36:57.211Z,736.18
2017-01-21T00:37:57.190Z,736.23
2017-01-21T00:38:57.170Z,736.27
2017-01-21T00:39:57.145Z,736.27
2017-01-21T00:40:57.125Z,736.2
2017-01-21T00:41:57.104Z,736.29
2017-01-21T00:42:57.083Z,736.26
2017-01-21T00:43:57.066Z,736.25
2017-01-21T00:44:57.046Z,736.2
2017-01-21T00:45:57.020Z,736.21
2017-01-21T00:46:57.000Z,736.24
2017-01-21T00:47:56.982Z,736.25
2017-01-21T00:48:56.958Z,736.26
2017-01-21T00:49:56.940Z,736.23
2017-01-21T00:50:56.917Z,736.22
2017-01-21T00:51:56.899Z,736.21
2017-01-21T00:52:56.877Z,736.21
2017-01-21T00:53:56.854Z,736.13
2017-01-21T00:54:56.833Z,736.16
2017-01-21T00:55:56.813Z,736.23
2017-01-21T00:56:56.794Z,736.14
2017-01-21T00:57:56.773Z,736.23
2017-01-21T00:58:56.749Z,736.19
2017-01-21T00:59:56.731Z,736.27
2017-01-21T01:00:56.707Z,736.31
2017-01-21T01:01:56.686Z,736.3
2017-01-21T01:02:56.669Z,736.3
2017-01-21T01:03:56.643Z,736.28
2017-01-21T01:04:56.624Z,736.21
2017-01-21T01:05:56.606Z,736.27
2017-01-21T01:06:56.585Z,736.21
2017-01-21T01:07:56.561Z,736.22
2017-01-21T01:08:56.541Z,736.26
2017-01-21T01:09:56.520Z,736.33
2017-01-21T01:10:56.501Z,736.3
2017-01-21T01:11:56.478Z,736.28
2017-01-21T01:12:56.457Z,736.3
2017-01-21T01:13:56.440Z,736.25
2017-01-21T01:14:56.415Z,736.31
2017-01-21T01:15:56.395Z,736.31
2017-01-21T01:16:56.377Z,736.36
2017-01-21T01:17:56.554Z,736.31
2017-01-21T01:18:56.335Z,736.34
2017-01-21T01:19:56.315Z,736.34
2017-01-21T01:20:56.292Z,736.38
2017-01-21T01:21:56.273Z,736.34
2017-01-21T01:22:56.250Z,736.25
2017-01-21T01:23:56.230Z,736.28
2017-01-21T01:24:56.212Z,736.31
2017-01-21T01:25:56.187Z,736.3
2017-01-21T01:26:56.170Z,736.31
2017-01-21T01:27:56.150Z,736.22
2017-01-21T01:28:56.126Z,736.25
2017-01-21T01:29:56.105Z,736.25
2017-01-21T01:30:56.085Z,736.22
2017-01-21T01:31:56.064Z,736.24
2017-01-21T01:32:56.043Z,736.26
2017-01-21T01:33:56.023Z,736.3
2017-01-21T01:34:56.003Z,736.27
2017-01-21T01:35:55.982Z,736.2
2017-01-21T01:36:55.964Z,736.14
2017-01-21T01:37:55.944Z,736.24
2017-01-21T01:38:55.923Z,736.22
2017-01-21T01:39:55.903Z,736.24
2017-01-21T01:40:55.878Z,736.26
2017-01-21T01:41:55.858Z,736.25
2017-01-21T01:42:55.840Z,736.3
2017-01-21T01:43:55.816Z,736.27
2017-01-21T01:44:55.798Z,736.25
2017-01-21T01:45:55.775Z,736.21
2017-01-21T01:46:55.757Z,736.22
2017-01-21T01:47:55.736Z,736.19
2017-01-21T01:48:55.716Z,736.15
2017-01-21T01:49:55.691Z,736.24
2017-01-21T01:50:55.671Z,736.24
2017-01-21T01:51:55.650Z,736.18
2017-01-21T01:52:55.629Z,736.26
2017-01-21T01:53:55.608Z,736.31
2017-01-21T01:54:55.588Z,736.25
2017-01-21T01:55:55.565Z,736.26
2017-01-21T01:56:55.546Z,736.24
2017-01-21T01:57:55.529Z,736.14
2017-01-21T01:58:55.505Z,736.32
2017-01-21T01:59:55.483Z,736.26
2017-01-21T02:00:55.464Z,736.23
2017-01-21T02:01:55.444Z,736.27
2017-01-21T02:02:55.423Z,736.21
2017-01-21T02:03:55.402Z,736.23
2017-01-21T02:04:55.385Z,736.24
2017-01-21T02:05:55.361Z,736.27
2017-01-21T02:06:55.341Z,736.22
2017-01-21T02:07:55.323Z,736.23
2017-01-21T02:08:55.303Z,736.24
2017-01-21T02:09:55.282Z,736.27
2017-01-21T02:10:55.261Z,736.24
2017-01-21T02:11:55.238Z,736.23
2017-01-21T02:12:55.218Z,736.17
2017-01-21T02:13:55.201Z,736.2
2017-01-21T02:14:55.183Z,736.2
2017-01-21T02:15:55.160Z,736.24
2017-01-21T02:16:55.135Z,736.12
2017-01-21T02:17:55.118Z,736.21
2017-01-21T02:18:55.095Z,736.25
2017-01-21T02:19:55.077Z,736.23
2017-01-21T02:20:55.053Z,736.23
2017-01-21T02:21:55.033Z,736.2
2017-01-21T02:22:55.012Z,736.21
2017-01-21T02:23:54.994Z,736.19
2017-01-21T02:24:54.973Z,736.26
2017-01-21T02:25:54.950Z,736.24
2017-01-21T02:26:54.933Z,736.24
2017-01-21T02:27:54.907Z,736.21
2017-01-21T02:28:54.887Z,736.22
2017-01-21T02:29:54.870Z,736.22
2017-01-21T02:30:54.849Z,736.21
2017-01-21T02:31:54.826Z,736.22
2017-01-21T02:32:54.808Z,736.22
2017-01-21T02:33:54.789Z,736.2
2017-01-21T02:34:54.766Z,736.2
2017-01-21T02:35:54.743Z,736.23
2017-01-21T02:36:54.722Z,736.14
2017-01-21T02:37:54.705Z,736.12
2017-01-21T02:38:54.680Z,736.07
2017-01-21T02:39:54.663Z,736.13
2017-01-21T02:40:54.639Z,736.18
2017-01-21T02:41:54.824Z,736.22
2017-01-21T02:42:54.598Z,736.22
2017-01-21T02:43:54.578Z,736.2
2017-01-21T02:44:54.560Z,736.23
2017-01-21T02:45:54.539Z,736.16
2017-01-21T02:46:54.516Z,736.16
2017-01-21T02:47:54.495Z,736.18
2017-01-21T02:48:54.480Z,736.17
2017-01-21T02:49:54.453Z,736.2
2017-01-21T02:50:54.433Z,736.21
2017-01-21T02:51:54.412Z,736.22
2017-01-21T02:52:54.395Z,736.11
2017-01-21T02:53:54.371Z,736.17
2017-01-21T02:54:54.350Z,736.07
2017-01-21T02:55:54.333Z,736.13
2017-01-21T02:56:54.309Z,736.13
2017-01-21T02:57:54.289Z,736.18
2017-01-21T02:58:54.269Z,736.22
2017-01-21T02:59:54.248Z,736.18
2017-01-21T03:00:54.229Z,736.15
2017-01-21T03:01:54.210Z,736.18
2017-01-21T03:02:54.186Z,736.14
2017-01-21T03:03:54.166Z,736.12
2017-01-21T03:04:54.145Z,736.12
2017-01-21T03:05:54.124Z,736.2
2017-01-21T03:06:54.108Z,736.22
2017-01-21T03:07:54.083Z,736.24
2017-01-21T03:08:54.066Z,736.18
2017-01-21T03:09:54.043Z,736.16
2017-01-21T03:10:54.023Z,736.19
2017-01-21T03:11:54.005Z,736.08
2017-01-21T03:12:53.985Z,736.15
2017-01-21T03:13:53.965Z,736.23
2017-01-21T03:14:53.944Z,736.21
2017-01-21T03:15:53.920Z,736.18
2017-01-21T03:16:53.900Z,736.25
2017-01-21T03:17:53.883Z,736.17
2017-01-21T03:18:53.861Z,736.18
2017-01-21T03:19:53.838Z,736.21
2017-01-21T03:20:53.821Z,736.15
2017-01-21T03:21:53.801Z,736.18
2017-01-21T03:22:53.779Z,736.21
2017-01-21T03:23:53.756Z,736.12
2017-01-21T03:24:53.736Z,736.13
2017-01-21T03:25:53.718Z,736.16
2017-01-21T03:26:53.694Z,736.09
2017-01-21T03:27:53.675Z,736.14
2017-01-21T03:28:53.655Z,736.11
2017-01-21T03:29:53.637Z,736.06
2017-01-21T03:30:53.616Z,736.09
2017-01-21T03:31:53.593Z,736.08
2017-01-21T03:32:53.575Z,736.07
2017-01-21T03:33:53.551Z,736.08
2017-01-21T03:34:53.534Z,736.05
2017-01-21T03:35:53.510Z,736.1
2017-01-21T03:36:53.490Z,736.11
2017-01-21T03:37:53.472Z,736.05
2017-01-21T03:38:53.451Z,736.09
2017-01-21T03:39:53.429Z,736.13
2017-01-21T03:40:53.410Z,736.09
2017-01-21T03:41:53.389Z,736.1
2017-01-21T03:42:53.369Z,736.1
2017-01-21T03:43:53.348Z,736.08
2017-01-21T03:44:53.324Z,736.17
2017-01-21T03:45:53.304Z,736.11
2017-01-21T03:46:53.286Z,736.16
2017-01-21T03:47:53.266Z,736.16
2017-01-21T03:48:53.243Z,736.11
2017-01-21T03:49:53.223Z,736.06
2017-01-21T03:50:53.203Z,736.06
2017-01-21T03:51:53.185Z,736.05
2017-01-21T03:52:53.162Z,736.05
2017-01-21T03:53:53.142Z,736
2017-01-21T03:54:53.121Z,736.02
2017-01-21T03:55:53.100Z,735.96
2017-01-21T03:56:53.079Z,736.04
2017-01-21T03:57:53.062Z,736.09
2017-01-21T03:58:53.040Z,736.01
2017-01-21T03:59:53.020Z,736.07
2017-01-21T04:00:52.996Z,736.03
2017-01-21T04:01:52.979Z,736.03
2017-01-21T04:02:52.957Z,735.98
2017-01-21T04:03:52.934Z,736.1
2017-01-21T04:04:52.913Z,736.08
2017-01-21T04:05:52.893Z,736.06
2017-01-21T04:06:52.871Z,736.05
2017-01-21T04:07:52.853Z,735.97
2017-01-21T04:08:52.830Z,736.09
2017-01-21T04:09:52.811Z,736.05
2017-01-21T04:10:52.793Z,736.05
2017-01-21T04:11:52.770Z,736.05
2017-01-21T04:12:52.746Z,736.01
2017-01-21T04:13:52.728Z,735.97
2017-01-21T04:14:52.704Z,736
2017-01-21T04:15:52.686Z,736.07
2017-01-21T04:16:52.663Z,735.95
2017-01-21T04:17:52.644Z,736.11
2017-01-21T04:18:52.620Z,736.08
2017-01-21T04:19:52.599Z,736
2017-01-21T04:20:52.581Z,736
2017-01-21T04:21:52.560Z,736.01
2017-01-21T04:22:52.537Z,736.07
2017-01-21T04:23:52.519Z,735.94
2017-01-21T04:24:52.494Z,736.08
2017-01-21T04:25:52.477Z,736.1
2017-01-21T04:26:52.453Z,736.11
2017-01-21T04:27:52.433Z,736.03
2017-01-21T04:28:52.411Z,736.01
2017-01-21T04:29:52.390Z,736.03
2017-01-21T04:30:52.372Z,736.07
2017-01-21T04:31:52.349Z,736.08
2017-01-21T04:32:52.328Z,736.03
2017-01-21T04:33:52.307Z,736.02
2017-01-21T04:34:52.287Z,736.04
2017-01-21T04:35:52.266Z,736.02
2017-01-21T04:36:52.248Z,736.02
2017-01-21T04:37:52.224Z,736
2017-01-21T04:38:52.204Z,736
2017-01-21T04:39:52.186Z,736.04
2017-01-21T04:40:52.165Z,736.04
2017-01-21T04:41:52.142Z,736.06
2017-01-21T04:42:52.124Z,736.04
2017-01-21T04:43:52.100Z,736.02
2017-01-21T04:44:52.083Z,735.99
2017-01-21T04:45:52.063Z,735.99
2017-01-21T04:46:52.041Z,735.97
2017-01-21T04:47:52.018Z,735.84
2017-01-21T04:48:51.997Z,735.98
2017-01-21T04:49:51.977Z,736.08
2017-01-21T04:50:51.956Z,735.97
2017-01-21T04:51:51.935Z,736.01
2017-01-21T04:52:51.918Z,736.01
2017-01-21T04:53:51.897Z,736.03
2017-01-21T04:54:51.873Z,736.02
2017-01-21T04:55:51.853Z,736.03
2017-01-21T04:56:51.836Z,736.01
2017-01-21T04:57:51.810Z,735.89
2017-01-21T04:58:51.794Z,735.87
2017-01-21T04:59:51.771Z,736.06
2017-01-21T05:00:51.751Z,736.03
2017-01-21T05:01:51.732Z,735.93
2017-01-21T05:02:51.712Z,736.04
2017-01-21T05:03:51.688Z,736
2017-01-21T05:04:51.670Z,735.99
2017-01-21T05:05:51.650Z,735.99
2017-01-21T05:06:51.630Z,735.97
2017-01-21T05:07:51.610Z,736.01
2017-01-21T05:08:51.589Z,736.02
2017-01-21T05:09:51.565Z,736
2017-01-21T05:10:51.548Z,736.01
2017-01-21T05:11:51.528Z,735.97
2017-01-21T05:12:51.507Z,735.97
2017-01-21T05:13:51.487Z,735.97
2017-01-21T05:14:51.464Z,735.99
2017-01-21T05:15:51.445Z,736
2017-01-21T05:16:51.422Z,735.97
2017-01-21T05:17:51.405Z,735.94
2017-01-21T05:18:51.386Z,735.97
2017-01-21T05:19:51.361Z,735.99
2017-01-21T05:20:51.344Z,735.97
2017-01-21T05:21:51.321Z,735.89
2017-01-21T05:22:51.301Z,736.01
2017-01-21T05:23:51.284Z,735.97
2017-01-21T05:24:51.264Z,735.99
2017-01-21T05:25:51.244Z,735.98
2017-01-21T05:26:51.223Z,735.99
2017-01-21T05:27:51.203Z,735.98
2017-01-21T05:28:51.180Z,735.97
2017-01-21T05:29:51.163Z,735.99
2017-01-21T05:30:51.142Z,736.02
2017-01-21T05:31:51.122Z,736.01
2017-01-21T05:32:51.103Z,736.01
2017-01-21T05:33:51.079Z,736
2017-01-21T05:34:51.059Z,735.99
2017-01-21T05:35:51.039Z,735.98
2017-01-21T05:36:51.019Z,735.99
2017-01-21T05:37:51.019Z,736.03
2017-01-21T05:38:50.978Z,736
2017-01-21T05:39:50.961Z,736
2017-01-21T05:40:50.941Z,736.02
2017-01-21T05:41:50.916Z,735.97
2017-01-21T05:42:50.896Z,736.03
2017-01-21T05:43:50.879Z,736
2017-01-21T05:44:50.855Z,736
2017-01-21T05:45:50.838Z,736.02
2017-01-21T05:46:50.818Z,736.04
2017-01-21T05:47:50.795Z,736.01
2017-01-21T05:48:50.777Z,736.08
2017-01-21T05:49:50.754Z,736.03
2017-01-21T05:50:50.734Z,736.04
2017-01-21T05:51:50.717Z,736.06
2017-01-21T05:52:50.696Z,736.01
2017-01-21T05:53:50.673Z,736.03
2017-01-21T05:54:50.653Z,736.05
2017-01-21T05:55:50.632Z,736.05
2017-01-21T05:56:50.612Z,736.02
2017-01-21T05:57:50.595Z,736.04
2017-01-21T05:58:50.575Z,736.1
2017-01-21T05:59:50.549Z,736.1
2017-01-21T06:00:50.530Z,736.05
2017-01-21T06:01:50.514Z,736.07
2017-01-21T06:02:50.490Z,736.13
2017-01-21T06:03:50.469Z,736.12
2017-01-21T06:04:50.449Z,736.15
2017-01-21T06:05:50.429Z,736.1
2017-01-21T06:06:50.411Z,736.14
2017-01-21T06:07:50.392Z,736.1
2017-01-21T06:08:50.369Z,736.11
2017-01-21T06:09:50.347Z,736.12
2017-01-21T06:10:50.329Z,736.13
2017-01-21T06:11:50.309Z,736.09
2017-01-21T06:12:50.286Z,736.13
2017-01-21T06:13:50.269Z,736.14
2017-01-21T06:14:50.244Z,736.13
2017-01-21T06:15:50.228Z,736.13
2017-01-21T06:16:50.209Z,736.1
2017-01-21T06:17:50.194Z,736.17
2017-01-21T06:18:50.164Z,736.11
2017-01-21T06:19:50.152Z,736.11
2017-01-21T06:20:50.123Z,736.16
2017-01-21T06:21:50.105Z,736.12
2017-01-21T06:22:50.085Z,736.18
2017-01-21T06:23:50.062Z,736.17
2017-01-21T06:24:50.045Z,736.15
2017-01-21T06:25:50.023Z,736.11
2017-01-21T06:26:50.000Z,736.12
2017-01-21T06:27:49.981Z,736.12
2017-01-21T06:28:49.964Z,736.11
2017-01-21T06:29:49.942Z,736.13
2017-01-21T06:30:49.922Z,736.12
2017-01-21T06:31:49.902Z,736.13
2017-01-21T06:32:49.881Z,736.14
2017-01-21T06:33:49.857Z,736.14
2017-01-21T06:34:49.841Z,736.12
2017-01-21T06:35:49.820Z,736.11
2017-01-21T06:36:49.796Z,736.1
2017-01-21T06:37:49.776Z,736.12
2017-01-21T06:38:49.759Z,736.13
2017-01-21T06:39:49.734Z,736.12
2017-01-21T06:40:49.717Z,736.12
2017-01-21T06:41:49.694Z,736.11
2017-01-21T06:42:49.676Z,736.11
2017-01-21T06:43:49.655Z,736.11
2017-01-21T06:44:49.631Z,736.16
2017-01-21T06:45:49.614Z,736.11
2017-01-21T06:46:49.591Z,736.1
2017-01-21T06:47:49.569Z,736.12
2017-01-21T06:48:49.549Z,736.14
2017-01-21T06:49:49.531Z,736.13
2017-01-21T06:50:49.507Z,736.15
2017-01-21T06:51:49.489Z,736.18
2017-01-21T06:52:49.469Z,736.22
2017-01-21T06:53:49.447Z,736.2
2017-01-21T06:54:49.427Z,736.19
2017-01-21T06:55:49.408Z,736.19
2017-01-21T06:56:49.383Z,736.16
2017-01-21T06:57:49.362Z,736.21
2017-01-21T06:58:49.345Z,736.24
2017-01-21T06:59:49.325Z,736.21
2017-01-21T07:00:49.300Z,736.21
2017-01-21T07:01:49.281Z,736.2
2017-01-21T07:02:49.260Z,736.22
2017-01-21T07:03:49.244Z,736.22
2017-01-21T07:04:49.224Z,736.23
2017-01-21T07:05:49.203Z,736.28
2017-01-21T07:06:49.179Z,736.28
2017-01-21T07:07:49.160Z,736.31
2017-01-21T07:08:49.140Z,736.3
2017-01-21T07:09:49.119Z,736.31
2017-01-21T07:10:49.103Z,736.32
2017-01-21T07:11:49.083Z,736.35
2017-01-21T07:12:49.060Z,736.31
2017-01-21T07:13:49.044Z,736.36
2017-01-21T07:14:49.021Z,736.37
2017-01-21T07:15:49.002Z,736.34
2017-01-21T07:16:48.985Z,736.41
2017-01-21T07:17:48.966Z,736.38
2017-01-21T07:18:48.947Z,736.4
2017-01-21T07:19:48.927Z,736.39
2017-01-21T07:20:48.908Z,736.38
2017-01-21T07:21:48.889Z,736.39
2017-01-21T07:22:48.870Z,736.4
2017-01-21T07:23:48.847Z,736.41
2017-01-21T07:24:48.833Z,736.41
2017-01-21T07:25:48.814Z,736.4
2017-01-21T07:26:48.793Z,736.4
2017-01-21T07:27:48.774Z,736.39
2017-01-21T07:28:48.756Z,736.41
2017-01-21T07:29:48.738Z,736.42
2017-01-21T07:30:48.720Z,736.43
2017-01-21T07:31:48.705Z,736.44
2017-01-21T07:32:48.687Z,736.43
2017-01-21T07:33:48.666Z,736.45
2017-01-21T07:34:48.651Z,736.43
2017-01-21T07:35:48.638Z,736.38
2017-01-21T07:36:48.613Z,736.45
2017-01-21T07:37:48.598Z,736.46
2017-01-21T07:38:48.576Z,736.48
2017-01-21T07:39:48.562Z,736.5
2017-01-21T07:40:48.545Z,736.46
2017-01-21T07:41:48.524Z,736.46
2017-01-21T07:42:48.510Z,736.46
2017-01-21T07:43:48.490Z,736.48
2017-01-21T07:44:48.473Z,736.46
2017-01-21T07:45:48.456Z,736.48
2017-01-21T07:46:48.440Z,736.45
2017-01-21T07:47:48.427Z,736.5
2017-01-21T07:48:48.410Z,736.5
2017-01-21T07:49:48.390Z,736.5
2017-01-21T07:50:48.375Z,736.48
2017-01-21T07:51:48.362Z,736.5
2017-01-21T07:52:48.342Z,736.48
2017-01-21T07:53:48.329Z,736.52
2017-01-21T07:54:48.313Z,736.53
2017-01-21T07:55:48.294Z,736.5
2017-01-21T07:56:48.280Z,736.52
2017-01-21T07:57:48.262Z,736.52
2017-01-21T07:58:48.249Z,736.54
2017-01-21T07:59:48.234Z,736.54
2017-01-21T08:00:48.217Z,736.49
2017-01-21T08:01:48.199Z,736.56
2017-01-21T08:02:48.184Z,736.54
2017-01-21T08:03:48.171Z,736.55
2017-01-21T08:04:48.156Z,736.56
2017-01-21T08:05:48.138Z,736.53
2017-01-21T08:06:48.124Z,736.56
2017-01-21T08:07:48.113Z,736.57
2017-01-21T08:08:48.094Z,736.59
2017-01-21T08:09:48.080Z,736.58
2017-01-21T08:10:48.070Z,736.63
2017-01-21T08:11:48.055Z,736.62
2017-01-21T08:12:48.037Z,736.58
2017-01-21T08:13:48.027Z,736.65
2017-01-21T08:14:48.012Z,736.61
2017-01-21T08:15:47.995Z,736.59
2017-01-21T08:16:47.981Z,736.67
2017-01-21T08:17:47.968Z,736.67
2017-01-21T08:18:47.957Z,736.67
2017-01-21T08:19:47.940Z,736.66
2017-01-21T08:20:47.927Z,736.74
2017-01-21T08:21:47.916Z,736.72
2017-01-21T08:22:47.899Z,736.71
2017-01-21T08:23:47.887Z,736.73
2017-01-21T08:24:47.873Z,736.69
2017-01-21T08:25:47.860Z,736.7
2017-01-21T08:26:47.850Z,736.72
2017-01-21T08:27:47.838Z,736.67
2017-01-21T08:28:47.825Z,736.68
2017-01-21T08:29:47.811Z,736.71
2017-01-21T08:30:47.799Z,736.73
2017-01-21T08:31:47.786Z,736.78
2017-01-21T08:32:47.775Z,736.72
2017-01-21T08:33:47.760Z,736.72
2017-01-21T08:34:47.747Z,736.73
2017-01-21T08:35:47.731Z,736.76
2017-01-21T08:36:47.717Z,736.76
2017-01-21T08:37:47.704Z,736.76
2017-01-21T08:38:47.691Z,736.72
2017-01-21T08:39:47.681Z,736.81
2017-01-21T08:40:47.667Z,736.81
2017-01-21T08:41:47.654Z,736.77
2017-01-21T08:42:47.637Z,736.79
2017-01-21T08:43:47.624Z,736.84
2017-01-21T08:44:47.611Z,736.86
2017-01-21T08:45:47.598Z,736.88
2017-01-21T08:46:47.585Z,736.87
2017-01-21T08:47:47.572Z,736.87
2017-01-21T08:48:47.562Z,736.88
2017-01-21T08:49:47.548Z,736.88
2017-01-21T08:50:47.537Z,736.86
2017-01-21T08:51:47.523Z,736.9
2017-01-21T08:52:47.511Z,736.94
2017-01-21T08:53:47.500Z,736.94
2017-01-21T08:54:47.487Z,736.88
2017-01-21T08:55:47.480Z,736.91
2017-01-21T08:56:47.466Z,736.9
2017-01-21T08:57:47.455Z,736.91
2017-01-21T08:58:47.446Z,736.9
2017-01-21T08:59:47.435Z,736.86
2017-01-21T09:00:47.424Z,736.89
2017-01-21T09:01:47.413Z,736.94
2017-01-21T09:02:47.398Z,736.91
2017-01-21T09:03:47.386Z,736.9
2017-01-21T09:04:47.374Z,736.9
2017-01-21T09:05:47.360Z,736.9
2017-01-21T09:06:47.351Z,736.94
2017-01-21T09:07:47.338Z,736.93
2017-01-21T09:08:47.323Z,736.9
2017-01-21T09:09:47.308Z,736.9
2017-01-21T09:10:47.295Z,736.93
2017-01-21T09:11:47.282Z,736.88
2017-01-21T09:12:47.272Z,736.89
2017-01-21T09:13:47.254Z,736.89
2017-01-21T09:14:47.243Z,736.95
2017-01-21T09:15:47.229Z,736.91
2017-01-21T09:16:47.211Z,736.87
2017-01-21T09:17:47.197Z,736.83
2017-01-21T09:18:47.186Z,736.9
2017-01-21T09:19:47.169Z,736.92
2017-01-21T09:20:47.154Z,736.91
2017-01-21T09:21:47.141Z,736.97
2017-01-21T09:22:47.130Z,736.97
2017-01-21T09:23:47.113Z,736.99
2017-01-21T09:24:47.102Z,736.94
2017-01-21T09:25:47.085Z,736.94
2017-01-21T09:26:47.072Z,736.99
2017-01-21T09:27:47.057Z,737.02
2017-01-21T09:28:47.044Z,737.02
2017-01-21T09:29:47.031Z,736.99
2017-01-21T09:30:47.017Z,737.03
2017-01-21T09:31:47.007Z,737.06
2017-01-21T09:32:46.994Z,737.09
2017-01-21T09:33:46.978Z,737.09
2017-01-21T09:34:46.969Z,737.06
2017-01-21T09:35:46.953Z,737.12
2017-01-21T09:36:46.943Z,737.08
2017-01-21T09:37:46.930Z,737.12
2017-01-21T09:38:46.918Z,737.14
2017-01-21T09:39:46.904Z,737.11
2017-01-21T09:40:46.895Z,737.15
2017-01-21T09:41:46.881Z,737.15
2017-01-21T09:42:46.869Z,737.13
2017-01-21T09:43:46.860Z,737.22
2017-01-21T09:44:46.850Z,737.15
2017-01-21T09:45:46.836Z,737.2
2017-01-21T09:46:46.824Z,737.21
2017-01-21T09:47:46.816Z,737.2
2017-01-21T09:48:46.805Z,737.24
2017-01-21T09:49:46.795Z,737.21
2017-01-21T09:50:46.784Z,737.2
2017-01-21T09:51:46.771Z,737.2
2017-01-21T09:52:46.764Z,737.21
2017-01-21T09:53:46.749Z,737.19
2017-01-21T09:54:46.743Z,737.18
2017-01-21T09:55:46.729Z,737.17
2017-01-21T09:56:46.720Z,737.2
2017-01-21T09:57:46.712Z,737.2
2017-01-21T09:58:46.702Z,737.19
2017-01-21T09:59:46.692Z,737.19
2017-01-21T10:00:46.677Z,737.16
2017-01-21T10:01:46.667Z,737.19
2017-01-21T10:02:46.657Z,737.18
2017-01-21T10:03:46.651Z,737.13
2017-01-21T10:04:46.636Z,737.09
2017-01-21T10:05:46.626Z,737.14
2017-01-21T10:06:46.620Z,737.11
2017-01-21T10:07:46.610Z,737.15
2017-01-21T10:08:46.596Z,737.1
2017-01-21T10:09:46.593Z,737.16
2017-01-21T10:10:46.580Z,737.13
2017-01-21T10:11:46.567Z,737.07
2017-01-21T10:12:46.557Z,737.08
2017-01-21T10:13:46.550Z,737.05
2017-01-21T10:14:46.538Z,737.03
2017-01-21T10:15:46.531Z,737.04
2017-01-21T10:16:46.518Z,737.07
2017-01-21T10:17:46.507Z,737.05
2017-01-21T10:18:46.496Z,737.04
2017-01-21T10:19:46.489Z,737.03
2017-01-21T10:20:46.476Z,737.05
2017-01-21T10:21:46.467Z,736.98
2017-01-21T10:22:46.463Z,737.02
2017-01-21T10:23:46.449Z,737.07
2017-01-21T10:24:46.436Z,737.05
2017-01-21T10:25:46.428Z,737.05
2017-01-21T10:26:46.414Z,737.02
2017-01-21T10:27:46.404Z,737.05
2017-01-21T10:28:46.397Z,737.01
2017-01-21T10:29:46.387Z,737.01
2017-01-21T10:30:46.376Z,736.99
2017-01-21T10:31:46.363Z,737.04
2017-01-21T10:32:46.356Z,737
2017-01-21T10:33:46.342Z,737
2017-01-21T10:34:46.335Z,736.95
2017-01-21T10:35:46.325Z,736.96
2017-01-21T10:36:46.312Z,737
2017-01-21T10:37:46.304Z,736.98
2017-01-21T10:38:46.291Z,736.98
2017-01-21T10:39:46.285Z,736.99
2017-01-21T10:40:46.272Z,736.96
2017-01-21T10:41:46.265Z,737.03
2017-01-21T10:42:46.255Z,736.99
2017-01-21T10:43:46.243Z,737
2017-01-21T10:44:46.236Z,736.94
2017-01-21T10:45:46.227Z,736.91
2017-01-21T10:46:46.214Z,736.94
2017-01-21T10:47:46.205Z,736.94
2017-01-21T10:48:46.197Z,736.91
2017-01-21T10:49:46.185Z,736.96
2017-01-21T10:50:46.176Z,736.9
2017-01-21T10:51:46.168Z,736.95
2017-01-21T10:52:46.156Z,736.89
2017-01-21T10:53:46.147Z,736.89
2017-01-21T10:54:46.138Z,736.93
2017-01-21T10:55:46.127Z,736.87
2017-01-21T10:56:46.118Z,736.91
2017-01-21T10:57:46.109Z,736.9
2017-01-21T10:58:46.103Z,736.93
2017-01-21T10:59:46.093Z,736.89
2017-01-21T11:00:46.081Z,736.9
2017-01-21T11:01:46.075Z,736.9
2017-01-21T11:02:46.065Z,736.89
2017-01-21T11:03:46.052Z,736.86
2017-01-21T11:04:46.046Z,736.89
2017-01-21T11:05:46.034Z,736.91
2017-01-21T11:06:46.026Z,736.86
2017-01-21T11:07:46.017Z,736.84
2017-01-21T11:08:46.004Z,736.89
2017-01-21T11:09:45.995Z,736.84
2017-01-21T11:10:45.988Z,736.88
2017-01-21T11:11:45.975Z,736.89
2017-01-21T11:12:45.968Z,736.8
2017-01-21T11:13:45.958Z,736.79
2017-01-21T11:14:45.945Z,736.8
2017-01-21T11:15:45.939Z,736.81
2017-01-21T11:16:45.926Z,736.81
2017-01-21T11:17:45.919Z,736.81
2017-01-21T11:18:45.910Z,736.75
2017-01-21T11:19:45.895Z,736.74
2017-01-21T11:20:45.885Z,736.77
2017-01-21T11:21:45.877Z,736.74
2017-01-21T11:22:45.863Z,736.78
2017-01-21T11:23:45.852Z,736.75
2017-01-21T11:24:45.842Z,736.74
2017-01-21T11:25:45.830Z,736.71
2017-01-21T11:26:45.818Z,736.67
2017-01-21T11:27:45.803Z,736.7
2017-01-21T11:28:45.790Z,736.74
2017-01-21T11:29:45.777Z,736.69
2017-01-21T11:30:45.764Z,736.7
2017-01-21T11:31:45.755Z,736.71
2017-01-21T11:32:45.741Z,736.73
2017-01-21T11:33:45.729Z,736.73
2017-01-21T11:34:45.716Z,736.69
2017-01-21T11:35:45.700Z,736.73
2017-01-21T11:36:45.692Z,736.73
2017-01-21T11:37:45.676Z,736.73
2017-01-21T11:38:45.670Z,736.7
2017-01-21T11:39:45.656Z,736.67
2017-01-21T11:40:45.645Z,736.7
2017-01-21T11:41:45.634Z,736.71
2017-01-21T11:42:45.620Z,736.7
2017-01-21T11:43:45.612Z,736.7
2017-01-21T11:44:45.599Z,736.73
2017-01-21T11:45:45.591Z,736.74
2017-01-21T11:46:45.580Z,736.72
2017-01-21T11:47:45.569Z,736.75
2017-01-21T11:48:45.556Z,736.74
2017-01-21T11:49:45.549Z,736.74
2017-01-21T11:50:45.537Z,736.71
2017-01-21T11:51:45.524Z,736.76
2017-01-21T11:52:45.514Z,736.71
2017-01-21T11:53:45.505Z,736.73
2017-01-21T11:54:45.492Z,736.72
2017-01-21T11:55:45.485Z,736.72
2017-01-21T11:56:45.475Z,736.74
2017-01-21T11:57:45.461Z,736.69
2017-01-21T11:58:45.454Z,736.67
2017-01-21T11:59:45.441Z,736.68
2017-01-21T12:00:45.434Z,736.65
2017-01-21T12:01:45.420Z,736.65
2017-01-21T12:02:45.413Z,736.66
2017-01-21T12:03:45.400Z,736.67
2017-01-21T12:04:45.389Z,736.68
2017-01-21T12:05:45.379Z,736.67
2017-01-21T12:06:45.373Z,736.66
2017-01-21T12:07:45.360Z,736.66
2017-01-21T12:08:45.349Z,736.64
2017-01-21T12:09:45.344Z,736.66
2017-01-21T12:10:45.331Z,736.68
2017-01-21T12:11:45.322Z,736.66
2017-01-21T12:12:45.312Z,736.7
2017-01-21T12:13:45.302Z,736.6
2017-01-21T12:14:45.293Z,736.59
2017-01-21T12:15:45.286Z,736.59
2017-01-21T12:16:45.275Z,736.57
2017-01-21T12:17:45.267Z,736.57
2017-01-21T12:18:45.257Z,736.62
2017-01-21T12:19:45.247Z,736.62
2017-01-21T12:20:45.234Z,736.62
2017-01-21T12:21:45.227Z,736.59
2017-01-21T12:22:45.218Z,736.58
2017-01-21T12:23:45.206Z,736.57
2017-01-21T12:24:45.194Z,736.57
2017-01-21T12:25:45.183Z,736.6
2017-01-21T12:26:45.175Z,736.6
2017-01-21T12:27:45.165Z,736.58
2017-01-21T12:28:45.151Z,736.55
2017-01-21T12:29:45.141Z,736.57
2017-01-21T12:30:45.129Z,736.55
2017-01-21T12:31:45.126Z,736.53
2017-01-21T12:32:45.107Z,736.52